| time (UTC) | temp C | wind direction | speed KPH | gust KPH | rain 1hr cm | rain 24hr cm | rain mn cm | humidity % | barometer mb |
| 20260904141832 | 24 | 186 | 1.6 | 9.7 | 0.00 | 0.00 | 0.00 | 35 | 1016.5 |
| 20260904140932 | 23 | 199 | 1.6 | 11.3 | 0.00 | 0.00 | 0.00 | 35 | 1016.5 |
| 20260904140011 | 23 | 190 | 4.8 | 12.9 | 0.00 | 0.00 | 0.00 | 36 | 1016.5 |
| 20260904135411 | 22 | 199 | 4.8 | 16.1 | 0.00 | 0.00 | 0.00 | 36 | 1016.5 |
| 20260904134511 | 22 | 195 | 6.4 | 16.1 | 0.00 | 0.00 | 0.00 | 36 | 1016.5 |
| 20260904133632 | 22 | 193 | 6.4 | 12.9 | 0.00 | 0.00 | 0.00 | 37 | 1016.5 |
| 20260904132732 | 21 | 204 | 3.2 | 14.5 | 0.00 | 0.00 | 0.00 | 37 | 1016.5 |
| 20260904131811 | 21 | 219 | 1.6 | 11.3 | 0.00 | 0.00 | 0.00 | 37 | 1016.5 |
| 20260904130911 | 21 | 210 | 4.8 | 17.7 | 0.00 | 0.00 | 0.00 | 37 | 1016.5 |
| 20260904130011 | 22 | 208 | 4.8 | 17.7 | 0.00 | 0.00 | 0.00 | 37 | 1016.5 |
| 20260904125432 | 22 | 217 | 3.2 | 12.9 | 0.00 | 0.00 | 0.00 | 36 | 1016.5 |
| 20260904124511 | 22 | 206 | 3.2 | 12.9 | 0.00 | 0.00 | 0.00 | 35 | 1016.5 |
| 20260904123633 | 22 | 205 | 3.2 | 12.9 | 0.00 | 0.00 | 0.00 | 34 | 1016.5 |
| 20260904122711 | 22 | 205 | 3.2 | 11.3 | 0.00 | 0.00 | 0.00 | 34 | 1016.5 |
| 20260904121811 | 22 | 204 | 3.2 | 12.9 | 0.00 | 0.00 | 0.00 | 35 | 1016.5 |
| 20260904120911 | 22 | 202 | 3.2 | 14.5 | 0.00 | 0.00 | 0.00 | 35 | 1016.5 |
| 20260904120011 | 22 | 202 | 3.2 | 11.3 | 0.00 | 0.00 | 0.00 | 35 | 1016.5 |
| 20260904115411 | 22 | 204 | 3.2 | 12.9 | 0.00 | 0.00 | 0.00 | 35 | 1016.5 |
| 20260904114511 | 22 | 210 | 1.6 | 14.5 | 0.00 | 0.00 | 0.00 | 35 | 1016.5 |
| 20260904113611 | 22 | 201 | 4.8 | 17.7 | 0.00 | 0.00 | 0.00 | 35 | 1016.5 |
| 20260904112711 | 22 | 205 | 3.2 | 17.7 | 0.00 | 0.00 | 0.00 | 34 | 1016.5 |
| 20260904111832 | 22 | 218 | 1.6 | 11.3 | 0.00 | 0.00 | 0.00 | 35 | 1016.5 |
| 20260904110911 | 22 | 199 | 4.8 | 12.9 | 0.00 | 0.00 | 0.00 | 34 | 1016.5 |
| 20260904110011 | 22 | 207 | 4.8 | 12.9 | 0.00 | 0.00 | 0.00 | 34 | 1016.5 |
| 20260904105411 | 22 | 203 | 3.2 | 12.9 | 0.00 | 0.00 | 0.00 | 34 | 1016.5 |
| 20260904104511 | 22 | 215 | 1.6 | 9.7 | 0.00 | 0.00 | 0.00 | 34 | 1016.5 |
| 20260904103611 | 22 | 224 | 3.2 | 16.1 | 0.00 | 0.00 | 0.00 | 33 | 1016.5 |
| 20260904102711 | 22 | 225 | 3.2 | 14.5 | 0.00 | 0.00 | 0.00 | 33 | 1016.5 |
| 20260904101811 | 23 | 214 | 1.6 | 11.3 | 0.00 | 0.00 | 0.00 | 33 | 1016.5 |
| 20260904100911 | 23 | 205 | 4.8 | 17.7 | 0.00 | 0.00 | 0.00 | 33 | 1016.5 |
| 20260904100011 | 23 | 207 | 3.2 | 19.3 | 0.00 | 0.00 | 0.00 | 32 | 1016.5 |
| 20260904095411 | 23 | 208 | 3.2 | 14.5 | 0.00 | 0.00 | 0.00 | 32 | 1016.5 |
| 20260904094511 | 23 | 204 | 4.8 | 14.5 | 0.00 | 0.00 | 0.00 | 32 | 1016.5 |
| 20260904093611 | 23 | 208 | 6.4 | 16.1 | 0.00 | 0.00 | 0.00 | 32 | 1016.5 |
| 20260904092711 | 23 | 213 | 6.4 | 14.5 | 0.00 | 0.00 | 0.00 | 31 | 1016.5 |
| 20260904091811 | 23 | 205 | 4.8 | 12.9 | 0.00 | 0.00 | 0.00 | 31 | 1016.5 |
| 20260904090911 | 23 | 209 | 4.8 | 12.9 | 0.00 | 0.00 | 0.00 | 31 | 1016.5 |
| 20260904090011 | 23 | 215 | 4.8 | 14.5 | 0.00 | 0.00 | 0.00 | 31 | 1016.5 |
| 20260904085411 | 23 | 216 | 4.8 | 14.5 | 0.00 | 0.00 | 0.00 | 31 | 1016.5 |
| 20260904084511 | 23 | 226 | 4.8 | 12.9 | 0.00 | 0.00 | 0.00 | 31 | 1016.5 |
| 20260904083611 | 23 | 226 | 4.8 | 11.3 | 0.00 | 0.00 | 0.00 | 31 | 1016.5 |
| 20260904082711 | 23 | 224 | 4.8 | 11.3 | 0.00 | 0.00 | 0.00 | 31 | 1016.5 |
| 20260904081811 | 23 | 213 | 4.8 | 14.5 | 0.00 | 0.00 | 0.00 | 31 | 1016.5 |
| 20260904080911 | 23 | 215 | 3.2 | 12.9 | 0.00 | 0.00 | 0.00 | 31 | 1016.5 |
| 20260904080032 | 23 | 206 | 3.2 | 12.9 | 0.00 | 0.00 | 0.00 | 31 | 1016.5 |
| 20260904075411 | 23 | 221 | 3.2 | 12.9 | 0.00 | 0.00 | 0.00 | 31 | 1016.5 |
| 20260904074511 | 23 | 221 | 1.6 | 12.9 | 0.00 | 0.00 | 0.00 | 32 | 1016.5 |
| 20260904073611 | 22 | 0 | 0.0 | 0.0 | 0.00 | 0.00 | 0.00 | 34 | 1016.5 |
| 20260904072711 | 23 | 156 | 0.0 | 9.7 | 0.00 | 0.00 | 0.00 | 32 | 1016.5 |
| 20260904071811 | 23 | 193 | 4.8 | 16.1 | 0.00 | 0.00 | 0.00 | 31 | 1016.5 |
| 20260904070911 | 23 | 206 | 6.4 | 19.3 | 0.00 | 0.00 | 0.00 | 30 | 1016.5 |
| 20260904070032 | 23 | 223 | 4.8 | 12.9 | 0.00 | 0.00 | 0.00 | 31 | 1016.5 |
| 20260904065411 | 23 | 221 | 6.4 | 16.1 | 0.00 | 0.00 | 0.00 | 30 | 1016.5 |
| 20260904064511 | 23 | 209 | 8.0 | 16.1 | 0.00 | 0.00 | 0.00 | 30 | 1016.5 |
| 20260904063611 | 23 | 205 | 9.7 | 14.5 | 0.00 | 0.00 | 0.00 | 30 | 1016.5 |
| 20260904062711 | 24 | 221 | 6.4 | 14.5 | 0.00 | 0.00 | 0.00 | 30 | 1016.5 |
| 20260904061811 | 24 | 238 | 6.4 | 16.1 | 0.00 | 0.00 | 0.00 | 29 | 1016.5 |
| 20260904060911 | 24 | 247 | 4.8 | 12.9 | 0.00 | 0.00 | 0.00 | 28 | 1016.5 |
| 20260904060012 | 24 | 237 | 4.8 | 14.5 | 0.00 | 0.00 | 0.00 | 29 | 1016.5 |
| 20260904055411 | 24 | 228 | 3.2 | 11.3 | 0.00 | 0.00 | 0.00 | 29 | 1016.5 |
| 20260904054511 | 24 | 227 | 3.2 | 11.3 | 0.00 | 0.00 | 0.00 | 29 | 1016.5 |
| 20260904053632 | 24 | 227 | 3.2 | 11.3 | 0.00 | 0.00 | 0.00 | 29 | 1016.5 |
| 20260904052711 | 24 | 227 | 3.2 | 11.3 | 0.00 | 0.00 | 0.00 | 29 | 1016.5 |
| 20260904051811 | 24 | 225 | 4.8 | 12.9 | 0.00 | 0.00 | 0.00 | 28 | 1016.5 |
| 20260904050911 | 24 | 225 | 4.8 | 12.9 | 0.00 | 0.00 | 0.00 | 29 | 1016.5 |
| 20260904050011 | 25 | 226 | 3.2 | 11.3 | 0.00 | 0.00 | 0.00 | 28 | 1016.5 |
| 20260904045411 | 25 | 226 | 1.6 | 9.7 | 0.00 | 0.00 | 0.00 | 28 | 1016.5 |
| 20260904044511 | 25 | 227 | 4.8 | 11.3 | 0.00 | 0.00 | 0.00 | 27 | 1016.5 |
| 20260904043611 | 25 | 227 | 4.8 | 11.3 | 0.00 | 0.00 | 0.00 | 27 | 1016.5 |
| 20260904042711 | 25 | 226 | 6.4 | 14.5 | 0.00 | 0.00 | 0.00 | 26 | 1016.5 |
| 20260904041811 | 25 | 229 | 4.8 | 12.9 | 0.00 | 0.00 | 0.00 | 27 | 1016.5 |
| 20260904040911 | 25 | 225 | 4.8 | 11.3 | 0.00 | 0.00 | 0.00 | 27 | 1016.5 |
| 20260904040032 | 25 | 237 | 4.8 | 19.3 | 0.00 | 0.00 | 0.00 | 28 | 1016.5 |
| 20260904035432 | 25 | 243 | 3.2 | 11.3 | 0.00 | 0.00 | 0.00 | 28 | 1016.5 |
| 20260904034511 | 25 | 244 | 1.6 | 6.4 | 0.00 | 0.00 | 0.00 | 28 | 1016.5 |
| 20260904033611 | 25 | 0 | 0.0 | 0.0 | 0.00 | 0.00 | 0.00 | 28 | 1016.5 |
| 20260904032732 | 25 | 244 | 1.6 | 6.4 | 0.00 | 0.00 | 0.00 | 27 | 1016.5 |
| 20260904031832 | 25 | 244 | 1.6 | 12.9 | 0.00 | 0.00 | 0.00 | 29 | 1016.5 |
| 20260904030911 | 25 | 244 | 3.2 | 8.0 | 0.00 | 0.00 | 0.00 | 28 | 1016.5 |
| 20260904030011 | 25 | 243 | 1.6 | 8.0 | 0.00 | 0.00 | 0.00 | 27 | 1016.5 |
| 20260904025432 | 25 | 241 | 3.2 | 8.0 | 0.00 | 0.00 | 0.00 | 27 | 1016.5 |
| 20260904024511 | 25 | 229 | 4.8 | 14.5 | 0.00 | 0.00 | 0.00 | 25 | 1016.5 |
| 20260904023632 | 25 | 226 | 3.2 | 17.7 | 0.00 | 0.00 | 0.00 | 25 | 1016.5 |
| 20260904022711 | 25 | 240 | 3.2 | 11.3 | 0.00 | 0.00 | 0.00 | 25 | 1016.5 |
| 20260904021811 | 25 | 206 | 1.6 | 11.3 | 0.00 | 0.00 | 0.00 | 26 | 1016.5 |
| 20260904020911 | 26 | 138 | 1.6 | 4.8 | 0.00 | 0.00 | 0.00 | 26 | 1016.5 |
| 20260904020011 | 25 | 90 | 1.6 | 9.7 | 0.00 | 0.00 | 0.00 | 27 | 1016.5 |
| 20260904015411 | 25 | 62 | 0.0 | 9.7 | 0.00 | 0.00 | 0.00 | 27 | 1016.5 |
| 20260904014511 | 25 | 61 | 0.0 | 3.2 | 0.00 | 0.00 | 0.00 | 26 | 1016.5 |
| 20260904013611 | 25 | 0 | 0.0 | 0.0 | 0.00 | 0.08 | 0.00 | 27 | 1016.5 |
| 20260904012732 | 26 | 0 | 0.0 | 0.0 | 0.00 | 0.08 | 0.00 | 28 | 1016.5 |
| 20260904011811 | 26 | 0 | 0.0 | 0.0 | 0.00 | 0.08 | 0.00 | 26 | 1016.5 |
| 20260904010911 | 27 | 0 | 0.0 | 1.6 | 0.00 | 0.08 | 0.00 | 24 | 1016.5 |
| 20260904010011 | 27 | 0 | 0.0 | 0.0 | 0.00 | 0.08 | 0.00 | 20 | 1016.5 |
| 20260904005411 | 28 | 0 | 0.0 | 0.0 | 0.00 | 0.08 | 0.00 | 20 | 1016.5 |
| 20260904004512 | 28 | 0 | 0.0 | 0.0 | 0.00 | 0.08 | 0.00 | 21 | 1016.5 |
| 20260904003633 | 28 | 60 | 1.6 | 6.4 | 0.00 | 0.08 | 0.00 | 21 | 1016.5 |
| 20260904002732 | 28 | 60 | 0.0 | 6.4 | 0.00 | 0.08 | 0.00 | 23 | 1016.5 |
| 20260904001811 | 28 | 60 | 0.0 | 6.4 | 0.00 | 0.08 | 0.00 | 22 | 1016.5 |
| 20260904000911 | 28 | 60 | 0.0 | 1.6 | 0.00 | 0.08 | 0.00 | 21 | 1016.5 |
| 20260904000011 | 28 | 0 | 0.0 | 0.0 | 0.00 | 0.08 | 0.00 | 24 | 1016.5 |
| 20260903235411 | 27 | 0 | 0.0 | 0.0 | 0.00 | 0.08 | 0.00 | 24 | 1016.5 |
| 20260903234511 | 28 | 60 | 1.6 | 6.4 | 0.00 | 0.08 | 0.00 | 24 | 1016.5 |
| 20260903233611 | 28 | 0 | 0.0 | 0.0 | 0.00 | 0.08 | 0.00 | 22 | 1016.5 |
| 20260903232712 | 28 | 60 | 1.6 | 8.0 | 0.00 | 0.08 | 0.00 | 21 | 1016.5 |
| 20260903231811 | 28 | 60 | 1.6 | 8.0 | 0.00 | 0.08 | 0.00 | 22 | 1016.5 |
| 20260903230911 | 28 | 60 | 1.6 | 6.4 | 0.00 | 0.08 | 0.00 | 23 | 1016.5 |
| 20260903230011 | 28 | 60 | 3.2 | 9.7 | 0.00 | 0.08 | 0.00 | 23 | 1016.5 |
| 20260903225411 | 28 | 61 | 1.6 | 8.0 | 0.00 | 0.08 | 0.00 | 23 | 1016.5 |
| 20260903224533 | 28 | 61 | 1.6 | 8.0 | 0.00 | 0.08 | 0.00 | 22 | 1016.5 |
| 20260903223611 | 28 | 58 | 3.2 | 9.7 | 0.00 | 0.08 | 0.00 | 21 | 1016.5 |
| 20260903222711 | 30 | 31 | 4.8 | 11.3 | 0.00 | 0.08 | 0.00 | 21 | 1016.5 |
| 20260903221811 | 30 | 16 | 4.8 | 12.9 | 0.00 | 0.08 | 0.00 | 21 | 1016.5 |
| 20260903220911 | 30 | 26 | 4.8 | 16.1 | 0.00 | 0.08 | 0.00 | 20 | 1016.5 |
| 20260903220011 | 30 | 48 | 4.8 | 16.1 | 0.00 | 0.08 | 0.00 | 23 | 1016.5 |
| 20260903215411 | 30 | 53 | 4.8 | 14.5 | 0.00 | 0.08 | 0.00 | 21 | 1016.5 |
| 20260903214512 | 30 | 53 | 3.2 | 14.5 | 0.00 | 0.08 | 0.00 | 21 | 1016.5 |
| 20260903213611 | 30 | 54 | 4.8 | 11.3 | 0.00 | 0.08 | 0.00 | 23 | 1016.5 |
| 20260903212711 | 30 | 36 | 8.0 | 16.1 | 0.00 | 0.08 | 0.00 | 24 | 1016.5 |
| 20260903211811 | 30 | 14 | 6.4 | 14.5 | 0.00 | 0.08 | 0.00 | 25 | 1016.5 |
| 20260903210911 | 30 | 13 | 3.2 | 14.5 | 0.00 | 0.08 | 0.00 | 24 | 1016.5 |
| 20260903210011 | 30 | 7 | 3.2 | 14.5 | 0.00 | 0.08 | 0.00 | 24 | 1016.5 |
| 20260903205411 | 30 | 22 | 6.4 | 14.5 | 0.00 | 0.08 | 0.00 | 25 | 1016.5 |
| 20260903204511 | 30 | 15 | 8.0 | 16.1 | 0.00 | 0.08 | 0.00 | 26 | 1016.5 |
| 20260903203611 | 29 | 2 | 6.4 | 16.1 | 0.00 | 0.08 | 0.00 | 26 | 1016.5 |
| 20260903202712 | 29 | 9 | 4.8 | 12.9 | 0.00 | 0.08 | 0.00 | 28 | 1016.5 |
| 20260903201833 | 28 | 47 | 8.0 | 16.1 | 0.00 | 0.08 | 0.00 | 27 | 1016.5 |
| 20260903200912 | 28 | 32 | 6.4 | 14.5 | 0.00 | 0.08 | 0.00 | 29 | 1016.5 |
| 20260903200011 | 28 | 21 | 6.4 | 16.1 | 0.00 | 0.08 | 0.00 | 29 | 1016.5 |
| 20260903195412 | 28 | 18 | 4.8 | 16.1 | 0.00 | 0.08 | 0.00 | 30 | 1016.5 |
| 20260903194511 | 28 | 347 | 3.2 | 14.5 | 0.00 | 0.08 | 0.00 | 30 | 1016.5 |
| 20260903193633 | 28 | 3 | 4.8 | 16.1 | 0.00 | 0.08 | 0.00 | 30 | 1016.5 |
| 20260903192712 | 28 | 20 | 4.8 | 12.9 | 0.00 | 0.08 | 0.00 | 30 | 1016.5 |
| 20260903191812 | 28 | 9 | 3.2 | 14.5 | 0.00 | 0.08 | 0.00 | 29 | 1016.5 |
| 20260903190911 | 28 | 14 | 4.8 | 12.9 | 0.00 | 0.08 | 0.00 | 31 | 1016.5 |
| 20260903190011 | 28 | 32 | 8.0 | 16.1 | 0.00 | 0.08 | 0.00 | 30 | 1016.5 |
| 20260903185412 | 28 | 34 | 3.2 | 14.5 | 0.00 | 0.08 | 0.00 | 30 | 1016.5 |
| 20260903184511 | 28 | 339 | 3.2 | 12.9 | 0.00 | 0.25 | 0.00 | 30 | 1016.5 |
| 20260903183612 | 28 | 41 | 3.2 | 11.3 | 0.00 | 0.58 | 0.00 | 32 | 1016.5 |
| 20260903182712 | 27 | 353 | 4.8 | 14.5 | 0.00 | 0.58 | 0.00 | 32 | 1016.5 |
| 20260903181812 | 27 | 358 | 3.2 | 12.9 | 0.00 | 0.58 | 0.00 | 33 | 1016.5 |
| 20260903180911 | 27 | 344 | 3.2 | 16.1 | 0.00 | 0.61 | 0.00 | 32 | 1016.5 |
| 20260903180011 | 27 | 10 | 6.4 | 17.7 | 0.00 | 0.61 | 0.00 | 35 | 1016.5 |
| 20260903175411 | 27 | 18 | 8.0 | 16.1 | 0.00 | 0.61 | 0.00 | 38 | 1016.5 |
| 20260903174512 | 27 | 8 | 4.8 | 12.9 | 0.00 | 0.61 | 0.00 | 37 | 1016.5 |
| 20260903173632 | 26 | 352 | 4.8 | 12.9 | 0.00 | 0.61 | 0.00 | 37 | 1016.5 |
| 20260903172711 | 26 | 355 | 4.8 | 14.5 | 0.00 | 0.64 | 0.00 | 41 | 1016.5 |
| 20260903171811 | 26 | 337 | 6.4 | 16.1 | 0.00 | 0.71 | 0.00 | 42 | 1016.5 |
| 20260903170911 | 25 | 331 | 3.2 | 12.9 | 0.00 | 0.71 | 0.00 | 44 | 1016.5 |
| 20260903170011 | 25 | 332 | 1.6 | 12.9 | 0.00 | 0.71 | 0.00 | 41 | 1016.5 |
| 20260903165411 | 25 | 332 | 3.2 | 12.9 | 0.00 | 0.71 | 0.00 | 43 | 1016.5 |
| 20260903164532 | 25 | 324 | 3.2 | 12.9 | 0.00 | 0.71 | 0.00 | 44 | 1016.5 |
| 20260903163633 | 25 | 333 | 3.2 | 16.1 | 0.00 | 0.71 | 0.00 | 46 | 1016.5 |
| 20260903162712 | 25 | 66 | 3.2 | 11.3 | 0.00 | 0.71 | 0.00 | 46 | 1016.5 |
| 20260903161832 | 25 | 30 | 4.8 | 9.7 | 0.00 | 0.71 | 0.00 | 47 | 1016.5 |
| 20260903160911 | 24 | 31 | 1.6 | 9.7 | 0.00 | 0.71 | 0.00 | 48 | 1016.5 |
| 20260903160011 | 24 | 31 | 1.6 | 9.7 | 0.00 | 0.71 | 0.00 | 48 | 1016.5 |
| 20260903155411 | 23 | 32 | 3.2 | 9.7 | 0.00 | 0.71 | 0.00 | 50 | 1016.5 |
| 20260903154512 | 23 | 30 | 0.0 | 6.4 | 0.00 | 0.71 | 0.00 | 47 | 1016.5 |
| 20260903153611 | 22 | 0 | 0.0 | 1.6 | 0.00 | 0.71 | 0.00 | 48 | 1016.5 |
| 20260903152732 | 22 | 0 | 0.0 | 0.0 | 0.00 | 0.71 | 0.00 | 48 | 1016.5 |
| 20260903151812 | 22 | 223 | 1.6 | 6.4 | 0.00 | 0.71 | 0.00 | 48 | 1016.5 |
| 20260903150911 | 22 | 0 | 0.0 | 0.0 | 0.00 | 0.71 | 0.00 | 48 | 1016.5 |
| 20260903150012 | 21 | 0 | 0.0 | 0.0 | 0.00 | 0.71 | 0.00 | 51 | 1016.5 |
| 20260903145412 | 21 | 0 | 0.0 | 0.0 | 0.00 | 0.71 | 0.00 | 53 | 1016.5 |
| 20260903144512 | 20 | 0 | 0.0 | 0.0 | 0.00 | 0.71 | 0.00 | 53 | 1016.5 |
| 20260903143611 | 20 | 0 | 0.0 | 0.0 | 0.00 | 0.71 | 0.00 | 54 | 1016.5 |
| 20260903142712 | 20 | 0 | 0.0 | 0.0 | 0.00 | 0.71 | 0.00 | 54 | 1016.5 |